sensor_id;sensor_type;location;lat;lon;timestamp;pressure;altitude;pressure_sealevel;temperature;humidity
63946;BME280;50122;56.330;43.838;2022-07-05T00:00:51;100818.44;;;14.54;69.59
63946;BME280;50122;56.330;43.838;2022-07-05T00:03:18;100805.47;;;14.48;69.50
63946;BME280;50122;56.330;43.838;2022-07-05T00:05:45;100817.91;;;14.47;69.60
63946;BME280;50122;56.330;43.838;2022-07-05T00:08:12;100817.38;;;14.40;69.32
63946;BME280;50122;56.330;43.838;2022-07-05T00:10:39;100811.41;;;14.35;69.33
63946;BME280;50122;56.330;43.838;2022-07-05T00:13:06;100807.09;;;14.33;69.83
63946;BME280;50122;56.330;43.838;2022-07-05T00:15:33;100816.13;;;14.30;69.79
63946;BME280;50122;56.330;43.838;2022-07-05T00:18:00;100804.94;;;14.23;69.89
63946;BME280;50122;56.330;43.838;2022-07-05T00:20:27;100811.34;;;14.19;70.41
63946;BME280;50122;56.330;43.838;2022-07-05T00:22:53;100816.81;;;14.16;70.16
63946;BME280;50122;56.330;43.838;2022-07-05T00:25:20;100817.06;;;14.12;70.26
63946;BME280;50122;56.330;43.838;2022-07-05T00:27:48;100823.38;;;14.09;70.25
63946;BME280;50122;56.330;43.838;2022-07-05T00:30:15;100815.72;;;14.03;70.45
63946;BME280;50122;56.330;43.838;2022-07-05T00:32:42;100824.63;;;14.02;70.59
63946;BME280;50122;56.330;43.838;2022-07-05T00:35:11;100827.44;;;13.99;70.80
63946;BME280;50122;56.330;43.838;2022-07-05T00:37:38;100828.44;;;13.96;70.67
63946;BME280;50122;56.330;43.838;2022-07-05T00:40:05;100824.19;;;13.92;70.96
63946;BME280;50122;56.330;43.838;2022-07-05T00:42:34;100827.75;;;13.93;70.95
63946;BME280;50122;56.330;43.838;2022-07-05T00:45:03;100825.25;;;13.89;71.16
63946;BME280;50122;56.330;43.838;2022-07-05T00:47:30;100832.25;;;13.90;71.45
63946;BME280;50122;56.330;43.838;2022-07-05T00:49:57;100827.94;;;13.88;71.29
63946;BME280;50122;56.330;43.838;2022-07-05T00:52:24;100829.75;;;13.87;71.30
63946;BME280;50122;56.330;43.838;2022-07-05T00:54:50;100837.78;;;13.86;71.89
63946;BME280;50122;56.330;43.838;2022-07-05T00:57:21;100833.25;;;13.88;71.60
63946;BME280;50122;56.330;43.838;2022-07-05T00:59:49;100844.75;;;13.88;71.53
63946;BME280;50122;56.330;43.838;2022-07-05T01:02:16;100843.84;;;13.89;71.86
63946;BME280;50122;56.330;43.838;2022-07-05T01:04:47;100838.66;;;13.86;71.87
63946;BME280;50122;56.330;43.838;2022-07-05T01:07:14;100842.25;;;13.85;72.11
63946;BME280;50122;56.330;43.838;2022-07-05T01:09:41;100835.22;;;13.84;72.04
63946;BME280;50122;56.330;43.838;2022-07-05T01:12:08;100832.72;;;13.81;72.15
63946;BME280;50122;56.330;43.838;2022-07-05T01:14:35;100841.53;;;13.82;72.21
63946;BME280;50122;56.330;43.838;2022-07-05T01:17:02;100845.06;;;13.82;71.93
63946;BME280;50122;56.330;43.838;2022-07-05T01:19:30;100845.19;;;13.79;71.96
63946;BME280;50122;56.330;43.838;2022-07-05T01:21:58;100845.13;;;13.81;71.77
63946;BME280;50122;56.330;43.838;2022-07-05T01:24:30;100835.78;;;13.72;72.11
63946;BME280;50122;56.330;43.838;2022-07-05T01:26:57;100850.16;;;13.87;72.18
63946;BME280;50122;56.330;43.838;2022-07-05T01:29:24;100847.28;;;13.92;72.28
63946;BME280;50122;56.330;43.838;2022-07-05T01:31:52;100839.16;;;13.95;72.36
63946;BME280;50122;56.330;43.838;2022-07-05T01:34:19;100845.25;;;13.97;72.23
63946;BME280;50122;56.330;43.838;2022-07-05T01:36:47;100847.84;;;13.98;72.04
63946;BME280;50122;56.330;43.838;2022-07-05T01:39:15;100835.31;;;14.00;72.19
63946;BME280;50122;56.330;43.838;2022-07-05T01:41:41;100837.91;;;14.02;72.20
63946;BME280;50122;56.330;43.838;2022-07-05T01:44:08;100837.81;;;14.03;71.97
63946;BME280;50122;56.330;43.838;2022-07-05T01:46:36;100844.06;;;14.02;71.95
63946;BME280;50122;56.330;43.838;2022-07-05T01:49:08;100853.53;;;14.08;72.29
63946;BME280;50122;56.330;43.838;2022-07-05T01:51:48;100847.22;;;14.11;72.52
63946;BME280;50122;56.330;43.838;2022-07-05T01:54:18;100850.69;;;14.13;72.42
63946;BME280;50122;56.330;43.838;2022-07-05T01:56:45;100854.03;;;14.16;72.95
63946;BME280;50122;56.330;43.838;2022-07-05T01:59:12;100853.56;;;14.25;72.86
63946;BME280;50122;56.330;43.838;2022-07-05T02:01:39;100852.38;;;14.31;72.62
63946;BME280;50122;56.330;43.838;2022-07-05T02:04:08;100851.13;;;14.38;72.72
63946;BME280;50122;56.330;43.838;2022-07-05T02:06:35;100859.75;;;14.44;73.09
63946;BME280;50122;56.330;43.838;2022-07-05T02:09:04;100853.09;;;14.52;72.96
63946;BME280;50122;56.330;43.838;2022-07-05T02:11:32;100861.66;;;14.59;72.82
63946;BME280;50122;56.330;43.838;2022-07-05T02:13:59;100855.78;;;14.70;72.60
63946;BME280;50122;56.330;43.838;2022-07-05T02:16:27;100851.78;;;14.79;72.56
63946;BME280;50122;56.330;43.838;2022-07-05T02:18:55;100859.97;;;14.91;72.45
63946;BME280;50122;56.330;43.838;2022-07-05T02:21:21;100855.78;;;15.03;72.50
63946;BME280;50122;56.330;43.838;2022-07-05T02:23:49;100855.41;;;15.11;72.38
63946;BME280;50122;56.330;43.838;2022-07-05T02:26:16;100860.22;;;15.20;72.37
63946;BME280;50122;56.330;43.838;2022-07-05T02:28:43;100872.00;;;15.32;72.13
63946;BME280;50122;56.330;43.838;2022-07-05T02:31:12;100865.56;;;15.36;72.17
63946;BME280;50122;56.330;43.838;2022-07-05T02:33:40;100864.38;;;15.42;72.22
63946;BME280;50122;56.330;43.838;2022-07-05T02:38:37;100875.41;;;15.52;72.16
63946;BME280;50122;56.330;43.838;2022-07-05T02:41:05;100877.38;;;15.64;71.69
63946;BME280;50122;56.330;43.838;2022-07-05T02:43:35;100879.44;;;15.75;71.86
63946;BME280;50122;56.330;43.838;2022-07-05T02:46:04;100886.75;;;15.87;71.37
63946;BME280;50122;56.330;43.838;2022-07-05T02:48:32;100887.03;;;15.98;71.23
63946;BME280;50122;56.330;43.838;2022-07-05T15:40:07;100719.16;;;28.00;25.16
63946;BME280;50122;56.330;43.838;2022-07-05T15:42:37;100719.31;;;27.90;25.68
63946;BME280;50122;56.330;43.838;2022-07-05T15:45:04;100715.59;;;27.66;26.32
63946;BME280;50122;56.330;43.838;2022-07-05T15:47:31;100726.75;;;27.55;26.46
63946;BME280;50122;56.330;43.838;2022-07-05T15:49:59;100730.66;;;27.52;26.73
63946;BME280;50122;56.330;43.838;2022-07-05T15:52:26;100728.63;;;27.46;26.73
63946;BME280;50122;56.330;43.838;2022-07-05T15:54:53;100728.75;;;27.36;26.98
63946;BME280;50122;56.330;43.838;2022-07-05T15:57:19;100713.06;;;27.14;26.94
63946;BME280;50122;56.330;43.838;2022-07-05T15:59:48;100706.09;;;27.03;27.93
63946;BME280;50122;56.330;43.838;2022-07-05T16:02:14;100723.22;;;27.03;27.61
63946;BME280;50122;56.330;43.838;2022-07-05T16:04:42;100719.13;;;26.91;27.49
63946;BME280;50122;56.330;43.838;2022-07-05T16:07:09;100713.50;;;26.84;27.67
63946;BME280;50122;56.330;43.838;2022-07-05T16:09:36;100721.50;;;26.94;27.64
63946;BME280;50122;56.330;43.838;2022-07-05T16:12:03;100715.69;;;26.89;27.73
63946;BME280;50122;56.330;43.838;2022-07-05T16:14:30;100711.94;;;26.82;28.24
63946;BME280;50122;56.330;43.838;2022-07-05T16:16:57;100700.38;;;26.72;28.39
63946;BME280;50122;56.330;43.838;2022-07-05T16:19:25;100701.47;;;26.87;27.93
63946;BME280;50122;56.330;43.838;2022-07-05T16:21:52;100721.38;;;27.12;27.43
63946;BME280;50122;56.330;43.838;2022-07-05T16:24:19;100723.38;;;27.61;27.20
63946;BME280;50122;56.330;43.838;2022-07-05T16:26:47;100718.56;;;27.30;27.80
63946;BME280;50122;56.330;43.838;2022-07-05T16:29:14;100716.38;;;26.83;28.46
63946;BME280;50122;56.330;43.838;2022-07-05T16:31:41;100711.97;;;26.56;29.44
63946;BME280;50122;56.330;43.838;2022-07-05T16:34:08;100716.94;;;26.34;30.09
63946;BME280;50122;56.330;43.838;2022-07-05T16:36:36;100702.75;;;26.14;29.98
63946;BME280;50122;56.330;43.838;2022-07-05T16:39:04;100707.41;;;26.30;29.94
63946;BME280;50122;56.330;43.838;2022-07-05T16:41:39;100719.16;;;26.12;30.21
63946;BME280;50122;56.330;43.838;2022-07-05T16:44:06;100715.56;;;25.86;30.99
63946;BME280;50122;56.330;43.838;2022-07-05T16:46:33;100720.13;;;25.67;31.01
63946;BME280;50122;56.330;43.838;2022-07-05T16:48:59;100720.25;;;25.47;31.54
63946;BME280;50122;56.330;43.838;2022-07-05T16:51:26;100719.38;;;25.29;31.63
63946;BME280;50122;56.330;43.838;2022-07-05T16:53:53;100719.88;;;25.14;32.27
63946;BME280;50122;56.330;43.838;2022-07-05T16:56:23;100731.47;;;25.07;32.82
63946;BME280;50122;56.330;43.838;2022-07-05T16:58:51;100723.41;;;24.97;33.28
63946;BME280;50122;56.330;43.838;2022-07-05T17:01:21;100726.41;;;24.94;33.72
63946;BME280;50122;56.330;43.838;2022-07-05T17:03:50;100727.63;;;24.82;34.10
63946;BME280;50122;56.330;43.838;2022-07-05T17:06:16;100726.56;;;24.65;34.75
63946;BME280;50122;56.330;43.838;2022-07-05T17:08:45;100726.44;;;24.47;35.71
63946;BME280;50122;56.330;43.838;2022-07-05T17:11:15;100723.66;;;24.28;35.83
63946;BME280;50122;56.330;43.838;2022-07-05T17:13:50;100717.44;;;24.08;36.96
63946;BME280;50122;56.330;43.838;2022-07-05T17:16:22;100729.25;;;23.88;37.95
63946;BME280;50122;56.330;43.838;2022-07-05T17:18:52;100729.38;;;23.67;38.03
63946;BME280;50122;56.330;43.838;2022-07-05T17:21:21;100726.09;;;23.44;38.58
63946;BME280;50122;56.330;43.838;2022-07-05T17:23:48;100733.44;;;23.22;39.71
63946;BME280;50122;56.330;43.838;2022-07-05T17:26:20;100728.22;;;22.99;40.06
63946;BME280;50122;56.330;43.838;2022-07-05T17:28:49;100725.75;;;22.77;41.27
63946;BME280;50122;56.330;43.838;2022-07-05T17:31:16;100734.59;;;22.58;41.62
63946;BME280;50122;56.330;43.838;2022-07-05T17:33:45;100733.53;;;22.39;41.89
63946;BME280;50122;56.330;43.838;2022-07-05T17:36:13;100736.78;;;22.22;42.32
63946;BME280;50122;56.330;43.838;2022-07-05T17:38:41;100738.09;;;22.06;42.64
63946;BME280;50122;56.330;43.838;2022-07-05T17:41:13;100733.28;;;21.89;43.74
63946;BME280;50122;56.330;43.838;2022-07-05T17:43:43;100733.47;;;21.76;44.42
63946;BME280;50122;56.330;43.838;2022-07-05T17:46:13;100736.19;;;21.64;44.26
63946;BME280;50122;56.330;43.838;2022-07-05T17:48:40;100749.56;;;21.55;44.47
63946;BME280;50122;56.330;43.838;2022-07-05T17:51:08;100752.50;;;21.40;45.19
63946;BME280;50122;56.330;43.838;2022-07-05T17:53:38;100751.53;;;21.30;45.38
63946;BME280;50122;56.330;43.838;2022-07-05T17:56:06;100744.13;;;21.11;46.07
63946;BME280;50122;56.330;43.838;2022-07-05T17:58:35;100755.25;;;21.06;46.34
63946;BME280;50122;56.330;43.838;2022-07-05T18:01:02;100756.97;;;20.96;46.27
63946;BME280;50122;56.330;43.838;2022-07-05T18:03:34;100749.78;;;20.85;46.97
63946;BME280;50122;56.330;43.838;2022-07-05T18:06:01;100747.97;;;20.74;46.97
63946;BME280;50122;56.330;43.838;2022-07-05T18:08:28;100754.13;;;20.63;47.38
63946;BME280;50122;56.330;43.838;2022-07-05T18:10:55;100755.09;;;20.51;47.33
63946;BME280;50122;56.330;43.838;2022-07-05T18:13:23;100745.56;;;20.36;47.74
63946;BME280;50122;56.330;43.838;2022-07-05T18:15:50;100751.75;;;20.25;48.22
63946;BME280;50122;56.330;43.838;2022-07-05T18:18:19;100758.06;;;20.12;48.67
63946;BME280;50122;56.330;43.838;2022-07-05T18:20:50;100760.72;;;20.01;49.15
63946;BME280;50122;56.330;43.838;2022-07-05T18:23:25;100768.84;;;19.88;49.36
63946;BME280;50122;56.330;43.838;2022-07-05T18:25:52;100774.03;;;19.78;49.73
63946;BME280;50122;56.330;43.838;2022-07-05T18:28:19;100770.28;;;19.68;50.25
63946;BME280;50122;56.330;43.838;2022-07-05T18:30:46;100751.59;;;19.55;50.68
63946;BME280;50122;56.330;43.838;2022-07-05T18:33:13;100773.16;;;19.54;51.24
63946;BME280;50122;56.330;43.838;2022-07-05T18:35:40;100763.22;;;19.43;51.80
63946;BME280;50122;56.330;43.838;2022-07-05T18:38:07;100764.53;;;19.37;52.18
63946;BME280;50122;56.330;43.838;2022-07-05T18:40:33;100765.19;;;19.28;52.83
63946;BME280;50122;56.330;43.838;2022-07-05T18:43:01;100759.88;;;19.15;53.58
63946;BME280;50122;56.330;43.838;2022-07-05T18:45:29;100760.53;;;19.06;53.98
63946;BME280;50122;56.330;43.838;2022-07-05T18:47:55;100769.88;;;19.00;54.37
63946;BME280;50122;56.330;43.838;2022-07-05T18:50:22;100766.03;;;18.91;54.75
63946;BME280;50122;56.330;43.838;2022-07-05T18:52:49;100769.03;;;18.87;55.13
63946;BME280;50122;56.330;43.838;2022-07-05T18:55:18;100757.88;;;18.80;55.01
63946;BME280;50122;56.330;43.838;2022-07-05T18:57:45;100759.16;;;18.74;55.54
63946;BME280;50122;56.330;43.838;2022-07-05T19:00:12;100762.38;;;18.67;56.15
63946;BME280;50122;56.330;43.838;2022-07-05T19:02:41;100758.53;;;18.58;56.40
63946;BME280;50122;56.330;43.838;2022-07-05T19:05:08;100757.78;;;18.56;56.73
63946;BME280;50122;56.330;43.838;2022-07-05T19:07:35;100758.88;;;18.53;56.76
63946;BME280;50122;56.330;43.838;2022-07-05T19:10:21;100757.78;;;18.56;56.71
63946;BME280;50122;56.330;43.838;2022-07-05T19:13:25;100759.16;;;18.49;56.84
63946;BME280;50122;56.330;43.838;2022-07-05T19:16:11;100765.81;;;18.43;57.79
63946;BME280;50122;56.330;43.838;2022-07-05T19:18:42;100753.94;;;18.34;57.96
63946;BME280;50122;56.330;43.838;2022-07-05T19:21:11;100755.22;;;18.29;58.05
63946;BME280;50122;56.330;43.838;2022-07-05T19:23:39;100754.03;;;18.20;58.32
63946;BME280;50122;56.330;43.838;2022-07-05T19:26:05;100750.25;;;18.10;58.57
63946;BME280;50122;56.330;43.838;2022-07-05T19:28:34;100751.03;;;18.12;59.07
63946;BME280;50122;56.330;43.838;2022-07-05T19:31:01;100763.72;;;18.08;59.32
63946;BME280;50122;56.330;43.838;2022-07-05T19:33:27;100775.69;;;18.02;59.13
63946;BME280;50122;56.330;43.838;2022-07-05T19:35:54;100771.63;;;17.97;59.34
63946;BME280;50122;56.330;43.838;2022-07-05T19:38:21;100758.38;;;17.81;59.12
63946;BME280;50122;56.330;43.838;2022-07-05T19:40:49;100771.84;;;17.79;59.24
63946;BME280;50122;56.330;43.838;2022-07-05T19:43:16;100773.91;;;17.76;59.43
63946;BME280;50122;56.330;43.838;2022-07-05T19:45:44;100766.09;;;17.73;59.40
63946;BME280;50122;56.330;43.838;2022-07-05T19:48:11;100760.63;;;17.74;59.80
63946;BME280;50122;56.330;43.838;2022-07-05T19:50:38;100768.34;;;17.79;59.00
63946;BME280;50122;56.330;43.838;2022-07-05T19:53:05;100772.63;;;17.81;59.33
63946;BME280;50122;56.330;43.838;2022-07-05T19:55:31;100764.81;;;17.78;58.79
63946;BME280;50122;56.330;43.838;2022-07-05T19:57:58;100765.88;;;17.76;59.01
63946;BME280;50122;56.330;43.838;2022-07-05T20:00:25;100771.53;;;17.71;59.17
63946;BME280;50122;56.330;43.838;2022-07-05T20:02:51;100770.13;;;17.65;59.43
63946;BME280;50122;56.330;43.838;2022-07-05T20:05:19;100779.41;;;17.60;59.32
63946;BME280;50122;56.330;43.838;2022-07-05T20:07:46;100779.97;;;17.50;59.96
63946;BME280;50122;56.330;43.838;2022-07-05T20:10:12;100774.59;;;17.38;59.85
63946;BME280;50122;56.330;43.838;2022-07-05T20:12:40;100773.72;;;17.37;60.20
63946;BME280;50122;56.330;43.838;2022-07-05T20:15:07;100780.13;;;17.34;60.40
63946;BME280;50122;56.330;43.838;2022-07-05T20:17:34;100777.44;;;17.34;60.65
63946;BME280;50122;56.330;43.838;2022-07-05T20:20:00;100777.16;;;17.39;60.41
63946;BME280;50122;56.330;43.838;2022-07-05T20:22:27;100777.16;;;17.39;60.35
63946;BME280;50122;56.330;43.838;2022-07-05T20:24:54;100776.28;;;17.39;60.39
63946;BME280;50122;56.330;43.838;2022-07-05T20:27:21;100757.81;;;17.21;60.17
63946;BME280;50122;56.330;43.838;2022-07-05T20:29:47;100777.28;;;17.38;60.25
63946;BME280;50122;56.330;43.838;2022-07-05T20:32:14;100778.84;;;17.40;60.39
63946;BME280;50122;56.330;43.838;2022-07-05T20:34:41;100773.94;;;17.34;60.36
63946;BME280;50122;56.330;43.838;2022-07-05T20:37:08;100772.97;;;17.35;60.75
63946;BME280;50122;56.330;43.838;2022-07-05T20:39:35;100759.81;;;17.32;60.46
63946;BME280;50122;56.330;43.838;2022-07-05T20:42:03;100772.88;;;17.36;60.61
63946;BME280;50122;56.330;43.838;2022-07-05T20:44:30;100772.78;;;17.38;60.28
63946;BME280;50122;56.330;43.838;2022-07-05T20:46:56;100769.31;;;17.36;60.15
63946;BME280;50122;56.330;43.838;2022-07-05T20:49:23;100767.72;;;17.33;60.17
63946;BME280;50122;56.330;43.838;2022-07-05T20:51:50;100768.22;;;17.26;59.90
63946;BME280;50122;56.330;43.838;2022-07-05T20:54:17;100769.19;;;17.25;60.30
63946;BME280;50122;56.330;43.838;2022-07-05T20:56:43;100773.09;;;17.19;60.62
63946;BME280;50122;56.330;43.838;2022-07-05T20:59:10;100764.41;;;17.15;60.61
63946;BME280;50122;56.330;43.838;2022-07-05T21:01:37;100760.22;;;17.11;60.61
63946;BME280;50122;56.330;43.838;2022-07-05T21:04:11;100765.47;;;17.13;60.86
63946;BME280;50122;56.330;43.838;2022-07-05T21:06:38;100761.19;;;17.10;60.76
63946;BME280;50122;56.330;43.838;2022-07-05T21:09:05;100760.53;;;17.07;60.55
63946;BME280;50122;56.330;43.838;2022-07-05T21:11:31;100763.38;;;17.04;60.81
63946;BME280;50122;56.330;43.838;2022-07-05T21:13:58;100762.81;;;16.98;61.10
63946;BME280;50122;56.330;43.838;2022-07-05T21:16:25;100757.88;;;16.92;61.03
63946;BME280;50122;56.330;43.838;2022-07-05T21:18:52;100740.88;;;16.79;61.24
63946;BME280;50122;56.330;43.838;2022-07-05T21:21:19;100750.72;;;16.78;61.64
63946;BME280;50122;56.330;43.838;2022-07-05T21:23:45;100764.81;;;16.80;61.38
63946;BME280;50122;56.330;43.838;2022-07-05T21:26:12;100755.84;;;16.81;61.25
63946;BME280;50122;56.330;43.838;2022-07-05T21:28:39;100754.03;;;16.82;61.42
63946;BME280;50122;56.330;43.838;2022-07-05T21:31:05;100759.66;;;16.77;61.23
63946;BME280;50122;56.330;43.838;2022-07-05T21:33:32;100773.19;;;16.74;61.70
63946;BME280;50122;56.330;43.838;2022-07-05T21:36:00;100756.41;;;16.72;61.51
63946;BME280;50122;56.330;43.838;2022-07-05T21:38:28;100756.41;;;16.72;61.65
63946;BME280;50122;56.330;43.838;2022-07-05T21:40:57;100760.59;;;16.76;61.50
63946;BME280;50122;56.330;43.838;2022-07-05T21:43:24;100756.81;;;16.80;61.38
63946;BME280;50122;56.330;43.838;2022-07-05T21:45:52;100762.88;;;16.82;61.18
63946;BME280;50122;56.330;43.838;2022-07-05T21:48:19;100758.44;;;16.83;60.47
63946;BME280;50122;56.330;43.838;2022-07-05T21:50:46;100759.38;;;16.82;60.48
63946;BME280;50122;56.330;43.838;2022-07-05T21:53:14;100767.47;;;16.80;60.46
63946;BME280;50122;56.330;43.838;2022-07-05T21:55:40;100761.38;;;16.78;60.48
63946;BME280;50122;56.330;43.838;2022-07-05T21:58:07;100762.22;;;16.79;60.18
63946;BME280;50122;56.330;43.838;2022-07-05T22:00:34;100765.00;;;16.77;60.08
63946;BME280;50122;56.330;43.838;2022-07-05T22:03:19;100777.56;;;16.75;59.94
63946;BME280;50122;56.330;43.838;2022-07-05T22:06:05;100770.63;;;16.73;60.33
63946;BME280;50122;56.330;43.838;2022-07-05T22:08:32;100775.38;;;16.67;60.03
63946;BME280;50122;56.330;43.838;2022-07-05T22:10:59;100766.63;;;16.65;60.23
63946;BME280;50122;56.330;43.838;2022-07-05T22:13:44;100776.41;;;16.65;59.59
63946;BME280;50122;56.330;43.838;2022-07-05T22:16:11;100776.41;;;16.65;60.33
63946;BME280;50122;56.330;43.838;2022-07-05T22:18:37;100763.47;;;16.59;60.20
63946;BME280;50122;56.330;43.838;2022-07-05T22:21:04;100770.34;;;16.63;60.22
63946;BME280;50122;56.330;43.838;2022-07-05T22:23:31;100774.88;;;16.61;59.83
63946;BME280;50122;56.330;43.838;2022-07-05T22:25:58;100748.47;;;16.42;60.14
63946;BME280;50122;56.330;43.838;2022-07-05T22:28:24;100766.22;;;16.57;59.84
63946;BME280;50122;56.330;43.838;2022-07-05T22:30:51;100764.41;;;16.58;59.79
63946;BME280;50122;56.330;43.838;2022-07-05T22:33:18;100770.88;;;16.54;59.85
63946;BME280;50122;56.330;43.838;2022-07-05T22:35:46;100768.41;;;16.50;60.02
63946;BME280;50122;56.330;43.838;2022-07-05T22:38:13;100765.19;;;16.45;59.81
63946;BME280;50122;56.330;43.838;2022-07-05T22:40:40;100756.59;;;16.40;60.04
63946;BME280;50122;56.330;43.838;2022-07-05T22:43:07;100760.28;;;16.38;60.27
63946;BME280;50122;56.330;43.838;2022-07-05T22:45:39;100764.13;;;16.34;60.46
63946;BME280;50122;56.330;43.838;2022-07-05T22:48:06;100774.84;;;16.32;60.26
63946;BME280;50122;56.330;43.838;2022-07-05T22:50:35;100777.72;;;16.29;60.76
63946;BME280;50122;56.330;43.838;2022-07-05T22:53:02;100774.75;;;16.19;60.88
63946;BME280;50122;56.330;43.838;2022-07-05T22:55:28;100775.19;;;16.11;61.17
63946;BME280;50122;56.330;43.838;2022-07-05T22:57:56;100781.75;;;16.06;61.43
63946;BME280;50122;56.330;43.838;2022-07-05T23:00:22;100780.28;;;16.00;61.59
63946;BME280;50122;56.330;43.838;2022-07-05T23:02:49;100776.09;;;15.96;61.90
63946;BME280;50122;56.330;43.838;2022-07-05T23:05:16;100780.56;;;15.95;62.04
63946;BME280;50122;56.330;43.838;2022-07-05T23:07:43;100783.31;;;15.94;62.14
63946;BME280;50122;56.330;43.838;2022-07-05T23:10:09;100777.34;;;15.90;62.16
63946;BME280;50122;56.330;43.838;2022-07-05T23:12:36;100789.88;;;15.88;62.19
63946;BME280;50122;56.330;43.838;2022-07-05T23:15:03;100782.06;;;15.85;62.41
63946;BME280;50122;56.330;43.838;2022-07-05T23:17:30;100775.28;;;15.79;62.69
63946;BME280;50122;56.330;43.838;2022-07-05T23:19:57;100778.78;;;15.80;62.91
63946;BME280;50122;56.330;43.838;2022-07-05T23:22:23;100781.53;;;15.78;63.05
63946;BME280;50122;56.330;43.838;2022-07-05T23:24:50;100778.19;;;15.75;63.10
63946;BME280;50122;56.330;43.838;2022-07-05T23:27:27;100778.19;;;15.75;63.25
63946;BME280;50122;56.330;43.838;2022-07-05T23:29:55;100773.78;;;15.74;63.18
63946;BME280;50122;56.330;43.838;2022-07-05T23:32:22;100788.06;;;15.73;63.40
63946;BME280;50122;56.330;43.838;2022-07-05T23:34:49;100767.19;;;15.65;63.30
63946;BME280;50122;56.330;43.838;2022-07-05T23:37:16;100775.97;;;15.67;63.56
63946;BME280;50122;56.330;43.838;2022-07-05T23:39:44;100773.22;;;15.69;63.43
63946;BME280;50122;56.330;43.838;2022-07-05T23:42:12;100773.31;;;15.67;63.42
63946;BME280;50122;56.330;43.838;2022-07-05T23:44:40;100765.31;;;15.67;63.43
63946;BME280;50122;56.330;43.838;2022-07-05T23:47:08;100780.41;;;15.67;63.58
63946;BME280;50122;56.330;43.838;2022-07-05T23:49:37;100776.13;;;15.64;63.58
63946;BME280;50122;56.330;43.838;2022-07-05T23:52:04;100780.00;;;15.58;63.72
63946;BME280;50122;56.330;43.838;2022-07-05T23:54:31;100788.78;;;15.60;63.67
63946;BME280;50122;56.330;43.838;2022-07-05T23:57:00;100775.34;;;15.62;63.57
63946;BME280;50122;56.330;43.838;2022-07-05T23:59:27;100783.25;;;15.63;63.42
